»·PEaware :: N1128 KIFP-KLAS

N1128 :: KIFP-KLAS

FLIGHT INFORMATION

Flight Status: Arrived
Operator: Privately registered:
United States
More flights under this callsign
Pilot: Siddique N. (20419)
Aircraft: ECLIPSE 500
(EA50)
More flights by this aircraft type
Origin: KIFP Laughlin/Bullhead Intl
United States
Destination: KLAS McCarran Intl
United States
More flights between these airports :: More routes between these airports
Route: +IGM TYSSN5
File this flight plan on PilotEdge
Remarks:
Altitude:
(Current/Filed)
14,000ft
Speed:
(Current/Filed)
250kts
Departed: 01-Sep-20 10:47 AM
Arrived: 01-Sep-20 11:17 AM
Distance/Time
Traveled:
63nm/0:30
Distance/Time
To Go:
Arrived

Flight Plot

Page will automatically refresh every two minutes.

Flight plan parsing failed; only flown route is shown


Map Options




Map Legend


Flown Route
Filed Route
Departure Airport
Arrival Airport
Navaid (VOR, NDB)
Fix

Horizontal Profiles

Position Reports

Time Latitude Longitude Heading Altitude Ground
Speed
01-Sep-20 10:18 35.158611 -114.555998 266 704ft 0kts
01-Sep-20 10:19 35.158611 -114.555998 266 704ft 0kts
01-Sep-20 10:20 35.158611 -114.555998 266 704ft 0kts
01-Sep-20 10:21 35.158611 -114.555998 266 704ft 0kts
01-Sep-20 10:22 35.158611 -114.555998 266 704ft 0kts
01-Sep-20 10:23 35.158611 -114.555998 266 704ft 0kts
01-Sep-20 10:24 35.158611 -114.555998 266 704ft 0kts
01-Sep-20 10:25 35.158611 -114.555998 266 704ft 0kts
01-Sep-20 10:26 35.158611 -114.555998 266 704ft 0kts
01-Sep-20 10:27 35.158611 -114.555998 266 704ft 0kts
01-Sep-20 10:28 35.158611 -114.555998 266 704ft 0kts
01-Sep-20 10:29 35.158611 -114.555998 266 704ft 0kts
01-Sep-20 10:30 35.158611 -114.555998 266 704ft 0kts
01-Sep-20 10:31 35.158611 -114.555998 266 704ft 0kts
01-Sep-20 10:32 35.158611 -114.555998 266 704ft 0kts
01-Sep-20 10:33 35.158611 -114.555998 266 704ft 0kts
01-Sep-20 10:34 35.158611 -114.555998 266 704ft 0kts
01-Sep-20 10:35 35.158611 -114.555998 266 704ft 0kts
01-Sep-20 10:36 35.158611 -114.555998 266 704ft 0kts
01-Sep-20 10:37 35.158611 -114.555998 266 704ft 0kts
01-Sep-20 10:38 35.158611 -114.555998 266 704ft 0kts
01-Sep-20 10:39 35.158611 -114.555998 266 704ft 0kts
01-Sep-20 10:40 35.158611 -114.555998 266 704ft 0kts
01-Sep-20 10:41 35.158611 -114.555998 266 704ft 0kts
01-Sep-20 10:42 35.157360 -114.556508 176 704ft 25kts
01-Sep-20 10:43 35.151781 -114.557663 174 704ft 31kts
01-Sep-20 10:44 35.145733 -114.557289 176 704ft 31kts
01-Sep-20 10:45 35.143024 -114.558346 290 704ft 6kts
01-Sep-20 10:46 35.144496 -114.558579 358 704ft 46kts
01-Sep-20 10:47 35.179793 -114.564487 351 1233ft 193kts
01-Sep-20 10:49 35.212808 -114.525429 83 3424ft 206kts
01-Sep-20 10:50 35.223035 -114.455223 84 6691ft 225kts
01-Sep-20 10:51 35.232499 -114.373215 84 9798ft 236kts
01-Sep-20 10:52 35.240158 -114.293014 87 12728ft 243kts
01-Sep-20 10:53 35.244962 -114.204112 87 14087ft 305kts
01-Sep-20 10:54 35.250559 -114.091350 87 14087ft 345kts
01-Sep-20 10:55 35.256487 -113.971728 87 14083ft 353kts
01-Sep-20 10:56 35.302962 -113.886252 359 14072ft 316kts
01-Sep-20 10:57 35.351051 -113.959651 274 14086ft 317kts
01-Sep-20 10:58 35.374985 -114.060231 322 14074ft 326kts
01-Sep-20 10:59 35.454966 -114.113052 325 14083ft 325kts
01-Sep-20 11:00 35.527452 -114.172231 322 13728ft 314kts
01-Sep-20 11:01 35.597604 -114.237814 319 12086ft 309kts
01-Sep-20 11:02 35.666990 -114.303647 319 11949ft 318kts
01-Sep-20 11:03 35.737809 -114.373386 316 11947ft 317kts
01-Sep-20 11:04 35.819218 -114.414429 337 11645ft 327kts
01-Sep-20 11:05 35.902083 -114.450793 337 9965ft 300kts
01-Sep-20 11:06 35.980164 -114.485939 336 9950ft 302kts
01-Sep-20 11:07 36.049289 -114.539059 293 9626ft 301kts
01-Sep-20 11:07 36.065937 -114.620690 281 6855ft 266kts
01-Sep-20 11:09 36.084967 -114.720493 281 6824ft 257kts
01-Sep-20 11:09 36.097899 -114.787553 281 6822ft 226kts
01-Sep-20 11:10 36.112141 -114.862824 279 6957ft 226kts
01-Sep-20 11:12 36.131539 -114.952582 282 6038ft 229kts
01-Sep-20 11:12 36.141793 -115.015420 274 4369ft 221kts
01-Sep-20 11:13 36.142243 -115.083838 258 3110ft 173kts
01-Sep-20 11:14 36.127575 -115.135683 230 2840ft 154kts
01-Sep-20 11:15 36.091313 -115.161102 206 2121ft 118kts
01-Sep-20 11:16 36.084105 -115.166216 223 2149ft 1kts
01-Sep-20 11:17 36.083325 -115.167164 225 2154ft 6kts

Navigation Log

Ident Type
Flight plan parsing failed, navigation log unavailable